Time;durP1;ratioP1;P1;durP2;ratioP2;P2;SDS_P1;SDS_P2;PMS_P1;PMS_P2;Temp;Humidity;BMP_temperature;BMP_pressure;BME280_temperature;BME280_humidity;BME280_pressure;Samples;Min_cycle;Max_cycle;Signal;HPM_P1;HPM_P2
2023/05/19 00:01:23;;;;;;;17.60;5.70;;;18.40;63.00;;;;;;7385047;19;20485;-75
2023/05/19 00:03:54;;;;;;;19.73;5.88;;;18.40;63.20;;;;;;7381871;19;20243;-75
2023/05/19 00:06:25;;;;;;;13.55;5.85;;;18.40;63.30;;;;;;7383314;19;20029;-75
2023/05/19 00:08:59;;;;;;;26.45;7.25;;;18.40;63.50;;;;;;7383948;19;20025;-75
2023/05/19 00:11:29;;;;;;;18.20;8.02;;;18.30;63.60;;;;;;7381676;19;20311;-74
2023/05/19 00:14:00;;;;;;;18.83;6.95;;;18.30;63.90;;;;;;7402625;19;20265;-76
2023/05/19 00:16:30;;;;;;;18.25;6.78;;;18.30;64.10;;;;;;7380703;19;20006;-75
2023/05/19 00:19:00;;;;;;;17.55;6.70;;;18.20;64.50;;;;;;7380199;19;20006;-75
2023/05/19 00:21:30;;;;;;;18.98;7.28;;;18.10;64.80;;;;;;7381968;19;20003;-74
2023/05/19 00:24:01;;;;;;;17.35;7.35;;;18.10;65.00;;;;;;7381448;19;20007;-74
2023/05/19 00:26:30;;;;;;;19.52;8.07;;;18.00;65.30;;;;;;7380853;19;20603;-75
2023/05/19 00:28:58;;;;;;;26.77;8.35;;;17.90;65.80;;;;;;7398434;19;20024;-75
2023/05/19 00:31:27;;;;;;;19.13;7.80;;;17.90;66.10;;;;;;7400141;19;20010;-75
2023/05/19 00:33:56;;;;;;;15.27;7.72;;;17.80;66.20;;;;;;7379297;19;20374;-76
2023/05/19 00:36:24;;;;;;;23.50;8.13;;;17.90;66.30;;;;;;7379610;19;20372;-76
2023/05/19 00:38:53;;;;;;;21.95;9.07;;;17.80;66.50;;;;;;7381316;19;20062;-75
2023/05/19 00:41:25;;;;;;;31.33;8.98;;;17.70;66.90;;;;;;7381271;19;20010;-74
2023/05/19 00:43:54;;;;;;;21.08;8.25;;;17.60;67.20;;;;;;7402758;19;20082;-74
2023/05/19 00:46:22;;;;;;;26.85;8.18;;;17.60;67.50;;;;;;7380297;19;20006;-74
2023/05/19 00:48:52;;;;;;;16.48;7.68;;;17.60;67.60;;;;;;7378301;19;20039;-74
2023/05/19 00:51:24;;;;;;;22.38;8.10;;;17.70;67.70;;;;;;7379053;19;20070;-76
2023/05/19 00:53:52;;;;;;;32.88;9.07;;;17.70;67.70;;;;;;7379601;19;20072;-74
2023/05/19 00:56:25;;;;;;;21.65;8.05;;;17.70;67.80;;;;;;7379584;19;20015;-75
2023/05/19 00:58:54;;;;;;;19.38;8.55;;;17.70;67.70;;;;;;7401117;19;20013;-75
2023/05/19 01:01:26;;;;;;;28.33;9.50;;;17.70;67.80;;;;;;7378501;19;20007;-75
2023/05/19 01:03:55;;;;;;;20.27;8.18;;;17.50;69.00;;;;;;7378900;19;20019;-74
2023/05/19 01:06:24;;;;;;;15.27;8.27;;;17.50;68.30;;;;;;7378931;19;20078;-74
2023/05/19 01:08:55;;;;;;;18.33;8.82;;;17.50;69.30;;;;;;7377058;19;20007;-74
2023/05/19 01:11:26;;;;;;;17.90;8.68;;;17.50;68.80;;;;;;7384497;19;20014;-74
2023/05/19 01:13:54;;;;;;;;;;;17.40;69.00;;;;;;7411381;19;20397;-75
2023/05/19 01:16:30;;;;;;;22.52;8.70;;;17.40;69.30;;;;;;7385784;19;19931;-75
2023/05/19 01:19:03;;;;;;;26.15;10.05;;;17.30;69.40;;;;;;7385011;19;20002;-75
2023/05/19 01:22:06;;;;;;;20.52;9.80;;;17.30;69.70;;;;;;7385451;19;20007;-75
2023/05/19 01:24:59;;;;;;;25.98;9.13;;;17.20;69.80;;;;;;7385445;19;20026;-75
2023/05/19 01:28:10;;;;;;;27.77;9.35;;;17.10;70.30;;;;;;7385023;19;20003;-75
2023/05/19 01:30:43;;;;;;;20.95;9.90;;;17.10;70.80;;;;;;7387077;19;20062;-75
2023/05/19 01:33:14;;;;;;;26.73;9.10;;;17.10;71.10;;;;;;7385513;19;20020;-74
2023/05/19 01:35:44;;;;;;;28.80;8.90;;;17.00;71.30;;;;;;7386397;19;20003;-75
2023/05/19 01:38:15;;;;;;;17.97;8.10;;;17.00;71.50;;;;;;7386125;19;20255;-75
2023/05/19 01:40:45;;;;;;;24.08;8.88;;;17.00;71.60;;;;;;7406889;19;20389;-75
2023/05/19 01:43:17;;;;;;;21.13;8.70;;;17.00;71.70;;;;;;7384291;19;20251;-75
2023/05/19 01:45:49;;;;;;;19.40;7.97;;;17.10;71.70;;;;;;7384226;19;20783;-75
2023/05/19 01:48:19;;;;;;;25.27;9.45;;;17.00;71.70;;;;;;7386181;19;20013;-75
2023/05/19 01:50:48;;;;;;;18.00;9.30;;;17.10;71.70;;;;;;7384082;19;20011;-74
2023/05/19 01:53:16;;;;;;;24.65;9.18;;;17.10;71.50;;;;;;7384896;19;20023;-74
2023/05/19 01:55:48;;;;;;;19.00;8.82;;;17.00;71.50;;;;;;7403535;19;20028;-74
2023/05/19 01:58:19;;;;;;;;;;;17.00;71.90;;;;;;7388029;19;20026;-73
2023/05/19 02:00:55;;;;;;;20.25;8.40;;;16.90;72.20;;;;;;7384085;19;19917;-74
2023/05/19 02:03:33;;;;;;;21.02;8.35;;;16.90;72.10;;;;;;7384118;19;20007;-73
2023/05/19 02:06:14;;;;;;;20.77;8.60;;;16.90;72.30;;;;;;7383942;19;20006;-72
2023/05/19 02:08:46;;;;;;;24.67;9.27;;;16.90;72.50;;;;;;7382226;19;20293;-72
2023/05/19 02:11:20;;;;;;;28.70;9.50;;;16.90;72.70;;;;;;7381630;19;20271;-72
2023/05/19 02:13:55;;;;;;;25.77;9.68;;;16.80;72.80;;;;;;7408072;19;20006;-70
2023/05/19 02:16:30;;;;;;;22.02;9.07;;;16.80;72.90;;;;;;7390637;19;20221;-71
2023/05/19 02:18:58;;;;;;;24.60;10.25;;;16.80;73.00;;;;;;7385712;19;20429;-71
2023/05/19 02:21:27;;;;;;;28.83;10.55;;;16.80;73.20;;;;;;7383092;19;20046;-71
2023/05/19 02:23:56;;;;;;;25.25;10.18;;;16.80;73.30;;;;;;7382683;19;20066;-71
2023/05/19 02:26:25;;;;;;;25.63;10.77;;;16.70;73.60;;;;;;7381510;19;20015;-71
2023/05/19 02:28:53;;;;;;;28.88;11.88;;;16.70;73.70;;;;;;7405138;19;20006;-71
2023/05/19 02:31:22;;;;;;;27.20;10.45;;;16.70;73.90;;;;;;7381377;19;20505;-71
2023/05/19 02:33:53;;;;;;;28.48;9.93;;;16.60;74.10;;;;;;7382374;19;20074;-73
2023/05/19 02:36:22;;;;;;;29.10;10.88;;;16.60;74.30;;;;;;7383240;19;20015;-71
2023/05/19 02:38:51;;;;;;;25.92;11.07;;;16.60;74.40;;;;;;7383086;19;20011;-71
2023/05/19 02:41:20;;;;;;;26.38;10.55;;;16.60;74.10;;;;;;7383492;19;19996;-71
2023/05/19 02:43:49;;;;;;;24.27;10.52;;;16.60;74.20;;;;;;7401495;19;20025;-71
2023/05/19 02:46:18;;;;;;;27.75;11.00;;;16.50;74.40;;;;;;7382152;19;20003;-70
2023/05/19 02:48:46;;;;;;;26.38;10.23;;;16.50;74.50;;;;;;7382543;19;20072;-70
2023/05/19 02:51:18;;;;;;;23.08;10.30;;;16.50;74.40;;;;;;7382975;19;20050;-71
2023/05/19 02:53:46;;;;;;;26.73;11.07;;;16.50;74.30;;;;;;7384149;19;20006;-71
2023/05/19 02:56:15;;;;;;;29.85;10.18;;;16.50;74.40;;;;;;7387559;19;20010;-70
2023/05/19 02:58:44;;;;;;;20.55;9.88;;;16.40;74.40;;;;;;7402282;19;20007;-71
2023/05/19 03:01:13;;;;;;;27.05;10.63;;;16.40;74.60;;;;;;7381453;19;20003;-71
2023/05/19 03:03:42;;;;;;;28.90;11.23;;;16.40;74.60;;;;;;7381915;19;20014;-71
2023/05/19 03:06:10;;;;;;;27.88;11.23;;;16.40;74.70;;;;;;7382244;19;20006;-72
2023/05/19 03:08:42;;;;;;;28.38;11.45;;;16.40;74.70;;;;;;7382148;19;20074;-72
2023/05/19 03:11:11;;;;;;;21.33;10.80;;;16.30;74.60;;;;;;7380780;19;20006;-71
2023/05/19 03:13:39;;;;;;;21.42;9.65;;;16.30;74.70;;;;;;7405130;19;20287;-72
2023/05/19 03:16:08;;;;;;;24.40;11.07;;;16.30;74.90;;;;;;7381014;19;20006;-72
2023/05/19 03:18:37;;;;;;;35.63;11.07;;;16.20;75.00;;;;;;7381110;19;20003;-72
2023/05/19 03:21:06;;;;;;;30.50;10.73;;;16.20;75.10;;;;;;7381198;19;20267;-71
2023/05/19 03:23:34;;;;;;;28.35;11.10;;;16.20;75.20;;;;;;7381560;19;20058;-71
2023/05/19 03:26:06;;;;;;;23.90;11.02;;;16.20;76.20;;;;;;7381432;19;20022;-72
2023/05/19 03:28:34;;;;;;;25.55;10.32;;;16.10;75.40;;;;;;7405380;19;20019;-70
2023/05/19 03:31:03;;;;;;;31.35;10.73;;;16.10;75.50;;;;;;7378991;19;20015;-71
2023/05/19 03:33:32;;;;;;;24.27;9.98;;;16.10;75.60;;;;;;7379883;19;20288;-70
2023/05/19 03:36:00;;;;;;;33.92;10.15;;;16.20;75.50;;;;;;7380257;19;20074;-71
2023/05/19 03:38:29;;;;;;;26.65;10.70;;;16.10;75.30;;;;;;7379715;19;20011;-71
2023/05/19 03:40:58;;;;;;;28.38;10.48;;;16.20;75.40;;;;;;7402449;19;20086;-71
2023/05/19 03:43:29;;;;;;;24.83;10.35;;;16.10;75.20;;;;;;7381636;19;20354;-73
2023/05/19 03:45:58;;;;;;;31.00;12.35;;;16.10;75.20;;;;;;7383379;19;20074;-72
2023/05/19 03:48:27;;;;;;;36.35;13.27;;;16.10;75.50;;;;;;7384318;19;20073;-72
2023/05/19 03:50:56;;;;;;;32.10;12.05;;;16.10;75.70;;;;;;7382299;19;20155;-70
2023/05/19 03:53:25;;;;;;;24.10;11.65;;;16.00;75.90;;;;;;7379328;19;20006;-71
2023/05/19 03:55:55;;;;;;;23.80;10.40;;;16.00;76.00;;;;;;7402274;19;20007;-71
2023/05/19 03:58:24;;;;;;;27.30;11.57;;;16.00;75.90;;;;;;7379912;19;20007;-70
2023/05/19 04:00:55;;;;;;;30.77;11.13;;;16.00;75.80;;;;;;7379027;19;20007;-70
2023/05/19 04:03:24;;;;;;;25.10;10.73;;;16.00;75.80;;;;;;7382694;19;20007;-71
2023/05/19 04:05:53;;;;;;;33.30;10.68;;;16.00;75.60;;;;;;7379147;19;20045;-71
2023/05/19 04:08:22;;;;;;;28.25;11.82;;;16.00;75.40;;;;;;7378486;19;20010;-71
2023/05/19 04:10:51;;;;;;;27.50;12.23;;;16.00;75.70;;;;;;7399634;19;20007;-71
2023/05/19 04:13:19;;;;;;;25.90;12.60;;;16.00;75.80;;;;;;7379105;19;20010;-71
2023/05/19 04:15:48;;;;;;;40.08;12.90;;;16.00;75.90;;;;;;7379831;19;20073;-71
2023/05/19 04:18:19;;;;;;;21.55;11.25;;;16.00;76.00;;;;;;7379988;19;20062;-71
2023/05/19 04:20:48;;;;;;;26.00;10.65;;;16.00;75.80;;;;;;7379934;19;20003;-71
2023/05/19 04:23:16;;;;;;;29.40;12.15;;;15.90;75.60;;;;;;7380803;19;20024;-71
2023/05/19 04:25:47;;;;;;;25.90;11.38;;;16.00;75.60;;;;;;7401385;19;20028;-71
2023/05/19 04:28:16;;;;;;;28.92;12.25;;;15.90;75.70;;;;;;7380594;19;20002;-71
2023/05/19 04:30:45;;;;;;;26.73;11.75;;;15.90;75.80;;;;;;7380310;19;20011;-71
2023/05/19 04:33:14;;;;;;;32.08;11.65;;;15.90;75.80;;;;;;7380265;19;20003;-71
2023/05/19 04:35:46;;;;;;;32.40;13.02;;;15.80;76.20;;;;;;7380670;19;20063;-71
2023/05/19 04:38:17;;;;;;;31.92;13.75;;;15.70;76.10;;;;;;7380506;19;20378;-71
2023/05/19 04:40:48;;;;;;;30.63;13.35;;;15.70;76.80;;;;;;7398701;19;20011;-70
2023/05/19 04:43:18;;;;;;;40.17;13.32;;;15.70;77.10;;;;;;7378773;19;20003;-71
2023/05/19 04:45:49;;;;;;;29.23;14.23;;;15.70;77.30;;;;;;7376731;19;20007;-70
2023/05/19 04:48:17;;;;;;;38.40;14.70;;;15.60;77.40;;;;;;7379058;19;20237;-70
2023/05/19 04:50:50;;;;;;;38.03;13.82;;;15.50;77.60;;;;;;7379092;19;20010;-71
2023/05/19 04:53:20;;;;;;;33.33;13.80;;;15.50;78.00;;;;;;7379969;19;20023;-71
2023/05/19 04:55:49;;;;;;;41.28;14.18;;;15.50;78.20;;;;;;7400167;19;20011;-70
2023/05/19 04:58:18;;;;;;;30.40;13.25;;;15.50;78.40;;;;;;7377944;19;20009;-70
2023/05/19 05:00:47;;;;;;;39.20;15.57;;;15.50;78.20;;;;;;7377358;19;20022;-70
2023/05/19 05:03:16;;;;;;;35.20;14.98;;;15.50;78.10;;;;;;7378811;19;20010;-70
2023/05/19 05:05:45;;;;;;;45.60;15.45;;;15.40;78.40;;;;;;7377987;19;20003;-70
2023/05/19 05:08:21;;;;;;;31.38;14.60;;;15.40;78.30;;;;;;7378756;19;20031;-70
2023/05/19 05:10:51;;;;;;;31.60;14.90;;;15.40;78.70;;;;;;7402127;19;20007;-70
2023/05/19 05:13:22;;;;;;;37.70;15.90;;;15.40;78.40;;;;;;7378361;19;20071;-70
2023/05/19 05:15:52;;;;;;;40.78;15.98;;;15.40;78.60;;;;;;7377614;19;20085;-71
2023/05/19 05:18:22;;;;;;;37.97;15.30;;;15.40;78.80;;;;;;7377096;19;20007;-71
2023/05/19 05:20:51;;;;;;;37.45;15.10;;;15.40;78.60;;;;;;7376600;19;20012;-70
2023/05/19 05:23:23;;;;;;;30.48;15.10;;;15.40;78.90;;;;;;7379339;19;20003;-72
2023/05/19 05:25:52;;;;;;;35.28;15.02;;;15.40;79.20;;;;;;7399584;19;20023;-71
2023/05/19 05:28:21;;;;;;;36.10;15.82;;;15.40;79.00;;;;;;7379524;19;20350;-71
2023/05/19 05:30:50;;;;;;;30.80;14.00;;;15.40;78.90;;;;;;7377695;19;20051;-71
2023/05/19 05:33:20;;;;;;;43.03;15.40;;;15.40;79.10;;;;;;7376702;19;20270;-72
2023/05/19 05:35:49;;;;;;;35.75;14.57;;;15.50;79.10;;;;;;7377824;19;20019;-71
2023/05/19 05:38:18;;;;;;;31.23;15.35;;;15.50;78.80;;;;;;7375957;19;20011;-71
2023/05/19 05:40:49;;;;;;;36.58;13.68;;;15.60;78.70;;;;;;7396774;19;20066;-71
2023/05/19 05:43:18;;;;;;;34.83;14.68;;;15.60;78.60;;;;;;7376718;19;20014;-71
2023/05/19 05:45:47;;;;;;;35.63;15.20;;;15.70;78.60;;;;;;7376647;19;20274;-70
2023/05/19 05:48:16;;;;;;;28.85;14.15;;;15.70;78.50;;;;;;7377223;19;20010;-70
2023/05/19 05:50:46;;;;;;;30.52;14.15;;;15.80;78.40;;;;;;7377204;19;20103;-70
2023/05/19 05:53:20;;;;;;;35.30;15.00;;;15.90;78.10;;;;;;7374729;19;20007;-71
2023/05/19 05:55:52;;;;;;;31.90;14.35;;;16.00;77.70;;;;;;7398721;19;20017;-71
2023/05/19 05:58:21;;;;;;;33.75;13.90;;;16.00;77.50;;;;;;7381792;19;20234;-72
2023/05/19 06:00:50;;;;;;;32.97;14.40;;;16.10;76.90;;;;;;7382570;19;20006;-71
2023/05/19 06:03:20;;;;;;;35.47;14.18;;;16.10;76.90;;;;;;7384864;19;20006;-70
2023/05/19 06:05:49;;;;;;;33.15;13.63;;;16.20;76.60;;;;;;7383799;19;20104;-70
2023/05/19 06:08:18;;;;;;;33.08;14.30;;;16.10;76.30;;;;;;7383676;19;20051;-71
2023/05/19 06:10:47;;;;;;;36.70;15.05;;;16.20;76.80;;;;;;7405087;19;20067;-70
2023/05/19 06:13:21;;;;;;;32.70;13.30;;;16.20;76.80;;;;;;7382935;19;20062;-70
2023/05/19 06:15:50;;;;;;;38.97;14.35;;;16.10;76.40;;;;;;7382727;19;20002;-71
2023/05/19 06:18:18;;;;;;;38.65;14.10;;;16.20;76.40;;;;;;7384449;19;20066;-70
2023/05/19 06:20:47;;;;;;;32.33;14.23;;;16.30;76.50;;;;;;7385102;19;20002;-71
2023/05/19 06:23:16;;;;;;;31.98;13.85;;;16.20;76.30;;;;;;7381888;19;20010;-70
2023/05/19 06:25:44;;;;;;;29.35;13.57;;;16.10;76.70;;;;;;7402137;19;20023;-70
2023/05/19 06:28:13;;;;;;;35.00;14.73;;;16.00;76.60;;;;;;7382635;19;20241;-71
2023/05/19 06:30:44;;;;;;;26.75;13.75;;;16.10;76.60;;;;;;7382360;19;20006;-71
2023/05/19 06:33:13;;;;;;;36.38;14.43;;;16.10;76.90;;;;;;7383674;19;20015;-71
2023/05/19 06:35:42;;;;;;;38.35;14.65;;;16.10;76.50;;;;;;7384569;19;20007;-71
2023/05/19 06:38:11;;;;;;;36.03;13.73;;;16.20;76.60;;;;;;7383263;19;20293;-70
2023/05/19 06:40:39;;;;;;;40.50;15.10;;;16.30;76.50;;;;;;7404667;19;20023;-71
2023/05/19 06:43:08;;;;;;;37.92;14.82;;;16.30;75.60;;;;;;7384891;19;20006;-71
2023/05/19 06:45:36;;;;;;;43.15;14.70;;;16.30;75.80;;;;;;7382457;19;20066;-71
2023/05/19 06:48:08;;;;;;;38.58;14.32;;;16.30;76.00;;;;;;7382523;19;20425;-71
2023/05/19 06:50:37;;;;;;;32.38;14.38;;;16.30;75.70;;;;;;7382349;19;20241;-71
2023/05/19 06:53:05;;;;;;;31.92;14.25;;;16.40;75.60;;;;;;7380049;19;20018;-71
2023/05/19 06:55:34;;;;;;;28.15;14.40;;;16.40;75.30;;;;;;7400996;19;20210;-71
2023/05/19 06:58:03;;;;;;;40.30;15.10;;;16.60;75.40;;;;;;7381272;19;20018;-71
2023/05/19 07:00:31;;;;;;;30.58;14.07;;;16.60;75.30;;;;;;7381555;19;20006;-71
2023/05/19 07:03:00;;;;;;;30.27;13.80;;;16.70;75.40;;;;;;7381080;19;20295;-70
2023/05/19 07:05:31;;;;;;;30.88;14.68;;;16.60;74.90;;;;;;7381447;19;20421;-70
2023/05/19 07:08:00;;;;;;;30.48;15.02;;;16.60;75.10;;;;;;7380616;19;20260;-70
2023/05/19 07:10:29;;;;;;;35.67;14.65;;;16.50;75.30;;;;;;7404913;19;20027;-70
2023/05/19 07:12:57;;;;;;;32.35;14.75;;;16.50;75.40;;;;;;7380550;19;19999;-70
2023/05/19 07:15:26;;;;;;;34.20;14.00;;;16.60;75.00;;;;;;7380651;19;20006;-70
2023/05/19 07:17:55;;;;;;;38.17;15.23;;;16.70;75.10;;;;;;7381722;19;19999;-70
2023/05/19 07:20:23;;;;;;;32.35;14.85;;;16.70;75.20;;;;;;7380941;19;20007;-70
2023/05/19 07:22:55;;;;;;;35.70;15.10;;;16.80;75.40;;;;;;7400666;19;20075;-70
2023/05/19 07:25:24;;;;;;;41.75;15.25;;;16.70;75.10;;;;;;7380135;19;20006;-69
2023/05/19 07:27:53;;;;;;;43.08;14.73;;;16.80;75.20;;;;;;7380327;19;20018;-70
2023/05/19 07:30:22;;;;;;;37.65;13.45;;;16.80;75.10;;;;;;7381767;19;20016;-70
2023/05/19 07:32:50;;;;;;;39.05;13.50;;;16.90;74.80;;;;;;7380654;19;20063;-70
2023/05/19 07:35:19;;;;;;;31.70;13.77;;;16.90;74.70;;;;;;7381688;19;20414;-70
2023/05/19 07:37:50;;;;;;;35.30;14.20;;;16.90;74.40;;;;;;7400451;19;20390;-70
2023/05/19 07:40:21;;;;;;;33.50;13.70;;;17.00;74.60;;;;;;7380469;19;20011;-70
2023/05/19 07:42:51;;;;;;;34.92;13.23;;;17.10;74.40;;;;;;7379137;19;20070;-70
2023/05/19 07:45:20;;;;;;;34.75;14.02;;;17.10;74.10;;;;;;7381271;19;20078;-70
2023/05/19 07:47:48;;;;;;;29.58;13.63;;;17.10;73.50;;;;;;7381504;19;20423;-70
2023/05/19 07:50:17;;;;;;;26.88;12.25;;;17.20;73.30;;;;;;7379821;19;20002;-70
2023/05/19 07:52:46;;;;;;;43.65;14.05;;;17.30;73.50;;;;;;7403825;19;20006;-70
2023/05/19 07:55:15;;;;;;;30.52;13.23;;;17.30;73.20;;;;;;7382907;19;20386;-71
2023/05/19 07:57:46;;;;;;;28.88;13.38;;;17.40;73.50;;;;;;7381818;19;20003;-71
2023/05/19 08:00:16;;;;;;;41.97;14.10;;;17.30;72.80;;;;;;7380011;19;20007;-71
2023/05/19 08:02:45;;;;;;;34.95;12.65;;;17.20;72.90;;;;;;7383474;19;20006;-71
2023/05/19 08:05:14;;;;;;;30.25;12.85;;;17.20;73.50;;;;;;7380376;19;20011;-71
2023/05/19 08:07:42;;;;;;;30.33;11.90;;;17.30;73.30;;;;;;7401870;19;20021;-71
2023/05/19 08:10:11;;;;;;;29.58;11.57;;;17.40;73.40;;;;;;7383424;19;20027;-71
2023/05/19 08:12:40;;;;;;;31.35;12.63;;;17.50;73.30;;;;;;7379894;19;20011;-71
2023/05/19 08:15:15;;;;;;;28.52;11.07;;;17.50;73.90;;;;;;7381432;19;20418;-71
2023/05/19 08:17:44;;;;;;;31.42;11.70;;;17.60;72.80;;;;;;7381722;19;20766;-70
2023/05/19 08:20:13;;;;;;;25.80;11.35;;;17.70;72.80;;;;;;7375536;19;20370;-70
2023/05/19 08:22:42;;;;;;;24.67;11.32;;;17.60;72.60;;;;;;7399345;19;20023;-71
2023/05/19 08:25:12;;;;;;;30.48;11.82;;;17.80;72.80;;;;;;7378586;19;20007;-71
2023/05/19 08:27:41;;;;;;;29.48;11.32;;;17.70;72.50;;;;;;7379135;19;20433;-71
2023/05/19 08:30:14;;;;;;;39.38;11.85;;;17.50;71.60;;;;;;7379340;19;20024;-71
2023/05/19 08:32:42;;;;;;;28.13;12.57;;;17.60;71.80;;;;;;7377997;19;20058;-71
2023/05/19 08:35:11;;;;;;;34.10;12.32;;;17.60;71.90;;;;;;7380946;19;20024;-71
2023/05/19 08:37:40;;;;;;;28.58;10.63;;;17.70;72.20;;;;;;7401311;19;20007;-71
2023/05/19 08:40:13;;;;;;;25.33;10.23;;;17.80;72.20;;;;;;7379111;19;20026;-71
2023/05/19 08:42:41;;;;;;;30.02;9.80;;;17.80;72.40;;;;;;7378144;19;20066;-71
2023/05/19 08:45:13;;;;;;;28.92;10.95;;;17.80;71.60;;;;;;7378072;19;20047;-71
2023/05/19 08:47:44;;;;;;;30.17;10.65;;;18.00;71.50;;;;;;7379141;19;20441;-70
2023/05/19 08:50:16;;;;;;;21.53;9.87;;;18.10;71.40;;;;;;7378519;19;20034;-71
2023/05/19 08:52:53;;;;;;;22.73;10.25;;;18.10;71.10;;;;;;7402598;19;20078;-71
2023/05/19 08:55:32;;;;;;;29.40;10.70;;;18.10;70.80;;;;;;7378191;19;20013;-71
2023/05/19 08:58:02;;;;;;;29.88;9.60;;;18.00;69.80;;;;;;7378763;19;20219;-71
2023/05/19 09:00:35;;;;;;;21.38;9.68;;;18.00;69.80;;;;;;7379512;19;20010;-70
2023/05/19 09:03:04;;;;;;;28.17;9.45;;;18.00;70.00;;;;;;7378526;19;20017;-71
2023/05/19 09:05:33;;;;;;;21.48;8.55;;;17.90;69.40;;;;;;7376970;19;20007;-71
2023/05/19 09:08:03;;;;;;;20.00;9.15;;;17.80;70.90;;;;;;7378423;19;20059;-71
2023/05/19 09:10:32;;;;;;;19.77;8.73;;;18.00;71.70;;;;;;7404179;19;20147;-71
2023/05/19 09:13:01;;;;;;;26.17;7.55;;;18.10;71.00;;;;;;7379482;19;19999;-71
2023/05/19 09:15:33;;;;;;;25.60;7.28;;;18.00;71.00;;;;;;7378432;19;20020;-71
2023/05/19 09:18:09;;;;;;;20.25;8.35;;;18.10;69.40;;;;;;7377759;19;20005;-71
2023/05/19 09:20:41;;;;;;;20.55;8.40;;;18.20;70.30;;;;;;7377144;19;20003;-71
2023/05/19 09:23:15;;;;;;;24.13;7.97;;;18.30;69.70;;;;;;7375496;19;20010;-71
2023/05/19 09:25:50;;;;;;;18.38;6.85;;;18.30;68.80;;;;;;7399750;19;20227;-71
2023/05/19 09:28:25;;;;;;;25.67;7.63;;;18.20;69.10;;;;;;7377099;19;20013;-72
2023/05/19 09:31:07;;;;;;;19.42;7.70;;;18.30;69.40;;;;;;7377820;19;20006;-72
2023/05/19 09:33:38;;;;;;;31.23;8.00;;;18.30;69.00;;;;;;7384804;19;20251;-72
2023/05/19 09:36:07;;;;;;;;;;;18.40;69.40;;;;;;7384203;19;20002;-72
2023/05/19 09:38:37;;;;;;;19.33;7.68;;;18.40;69.10;;;;;;7385387;19;19915;-72
2023/05/19 09:41:07;;;;;;;23.25;7.35;;;18.20;68.00;;;;;;7384734;19;20366;-72
2023/05/19 09:43:36;;;;;;;17.80;6.90;;;18.10;68.70;;;;;;7405769;19;20070;-72
2023/05/19 09:46:09;;;;;;;17.42;6.63;;;18.30;68.60;;;;;;7383705;19;20070;-71
2023/05/19 09:48:38;;;;;;;22.33;7.05;;;18.40;69.20;;;;;;7383987;19;20262;-72
2023/05/19 09:51:09;;;;;;;18.05;7.80;;;18.40;68.10;;;;;;7383600;19;20339;-71
2023/05/19 09:53:38;;;;;;;20.80;6.75;;;18.50;67.60;;;;;;7384590;19;20003;-71
2023/05/19 09:56:09;;;;;;;18.15;7.03;;;18.50;67.60;;;;;;7384511;19;20038;-73
2023/05/19 09:58:39;;;;;;;16.40;6.45;;;18.60;67.50;;;;;;7403839;19;20022;-72
2023/05/19 10:01:10;;;;;;;28.58;6.85;;;18.70;68.20;;;;;;7386652;19;20003;-72
2023/05/19 10:03:41;;;;;;;16.55;5.60;;;18.60;67.90;;;;;;7383714;19;20007;-72
2023/05/19 10:06:10;;;;;;;20.42;6.15;;;18.80;65.50;;;;;;7383642;19;20007;-72
2023/05/19 10:08:41;;;;;;;22.35;5.60;;;18.60;66.00;;;;;;7384459;19;20386;-72
2023/05/19 10:11:11;;;;;;;18.60;5.27;;;18.70;66.20;;;;;;7384126;19;20027;-72
2023/05/19 10:13:41;;;;;;;19.63;5.70;;;18.90;66.50;;;;;;7405983;19;21009;-72
2023/05/19 10:16:15;;;;;;;19.95;6.03;;;19.00;66.10;;;;;;7382290;19;20003;-72
2023/05/19 10:18:43;;;;;;;20.50;5.75;;;19.00;65.30;;;;;;7383690;19;20070;-71
2023/05/19 10:21:13;;;;;;;19.75;5.85;;;18.70;64.80;;;;;;7383077;19;20043;-71
2023/05/19 10:23:42;;;;;;;19.10;5.47;;;18.90;65.90;;;;;;7381325;19;20007;-71
2023/05/19 10:26:12;;;;;;;19.25;6.40;;;19.00;65.40;;;;;;7383225;19;20345;-71
2023/05/19 10:28:44;;;;;;;23.90;6.05;;;19.10;65.90;;;;;;7402360;19;20078;-72
2023/05/19 10:31:20;;;;;;;20.67;6.57;;;19.10;65.20;;;;;;7381439;19;20011;-71
2023/05/19 10:34:12;;;;;;;18.08;5.80;;;19.10;65.60;;;;;;7383472;19;20094;-71
2023/05/19 10:36:50;;;;;;;23.00;5.93;;;19.10;66.00;;;;;;7382452;19;20007;-71
2023/05/19 10:39:23;;;;;;;16.80;5.75;;;19.10;65.30;;;;;;7382718;19;20058;-72
2023/05/19 10:42:02;;;;;;;16.75;7.22;;;19.40;64.60;;;;;;7385214;19;20006;-73
2023/05/19 10:44:42;;;;;;;12.98;5.03;;;19.50;64.70;;;;;;7384262;19;20006;-73
2023/05/19 10:47:13;;;;;;;21.75;6.07;;;19.50;64.40;;;;;;7384318;19;20014;-73
2023/05/19 10:49:42;;;;;;;;;;;19.80;65.40;;;;;;7408063;19;20009;-73
2023/05/19 10:52:24;;;;;;;19.30;4.82;;;19.90;63.20;;;;;;7385082;19;19914;-73
2023/05/19 10:54:53;;;;;;;13.00;5.38;;;19.90;63.00;;;;;;7381309;19;20034;-73
2023/05/19 10:57:29;;;;;;;14.55;4.85;;;20.00;62.30;;;;;;7381599;19;20003;-73
2023/05/19 11:00:10;;;;;;;11.82;4.40;;;20.00;62.00;;;;;;7382777;19;20099;-73
2023/05/19 11:02:42;;;;;;;15.88;5.07;;;20.00;63.60;;;;;;7380715;19;20082;-72
2023/05/19 11:05:13;;;;;;;15.60;5.20;;;20.10;62.50;;;;;;7383168;19;20062;-73
2023/05/19 11:07:44;;;;;;;13.80;5.40;;;20.20;62.30;;;;;;7401918;19;20006;-72
2023/05/19 11:10:14;;;;;;;15.90;5.05;;;20.20;61.30;;;;;;7380747;19;20009;-72
2023/05/19 11:12:44;;;;;;;20.30;5.18;;;19.90;62.60;;;;;;7384616;19;20358;-72
2023/05/19 11:15:15;;;;;;;13.32;4.80;;;20.00;62.20;;;;;;7382557;19;20007;-72
2023/05/19 11:17:50;;;;;;;18.48;4.85;;;20.00;62.00;;;;;;7382892;19;20002;-72
2023/05/19 11:20:24;;;;;;;20.38;4.47;;;20.00;62.10;;;;;;7381535;19;20065;-72
2023/05/19 11:23:09;;;;;;;15.55;4.10;;;20.30;61.60;;;;;;7405593;19;20014;-74
2023/05/19 11:25:45;;;;;;;22.10;4.90;;;20.30;62.30;;;;;;7383046;19;19999;-72
2023/05/19 11:28:17;;;;;;;11.10;4.72;;;20.20;60.80;;;;;;7380196;19;20019;-71
2023/05/19 11:30:49;;;;;;;17.48;5.70;;;20.30;60.70;;;;;;7381427;19;20038;-73
2023/05/19 11:33:25;;;;;;;;;;;20.20;60.30;;;;;;7380518;19;20283;-74
2023/05/19 11:35:56;;;;;;;12.60;5.50;;;20.20;59.00;;;;;;7382846;19;20222;-73
2023/05/19 11:38:26;;;;;;;19.88;6.47;;;20.20;59.80;;;;;;7381413;19;20007;-72
2023/05/19 11:40:56;;;;;;;19.65;5.38;;;20.20;60.30;;;;;;7403235;19;20014;-72
2023/05/19 11:43:25;;;;;;;18.83;5.28;;;20.30;61.20;;;;;;7382581;19;20070;-72
2023/05/19 11:45:55;;;;;;;13.80;5.13;;;20.30;60.50;;;;;;7378835;19;20003;-72
2023/05/19 11:48:27;;;;;;;15.23;4.72;;;20.30;59.90;;;;;;7380133;19;20015;-72
2023/05/19 11:50:56;;;;;;;23.88;4.40;;;20.50;58.80;;;;;;7380137;19;20014;-72
2023/05/19 11:53:25;;;;;;;21.90;4.40;;;20.60;59.70;;;;;;7380325;19;20011;-72
2023/05/19 11:55:54;;;;;;;12.90;4.28;;;20.70;60.80;;;;;;7401020;19;20015;-72
2023/05/19 11:58:28;;;;;;;18.38;4.40;;;20.90;60.90;;;;;;7382099;19;20062;-73
2023/05/19 12:00:57;;;;;;;13.13;4.40;;;21.00;59.30;;;;;;7380863;19;20003;-72
2023/05/19 12:03:28;;;;;;;9.30;4.53;;;21.20;59.10;;;;;;7379129;19;20074;-72
2023/05/19 12:05:56;;;;;;;;;;;21.20;56.80;;;;;;7379509;19;20029;-74
2023/05/19 12:08:26;;;;;;;10.63;3.78;;;21.20;56.40;;;;;;7379871;19;19911;-71
2023/05/19 12:10:55;;;;;;;8.40;3.55;;;21.20;57.30;;;;;;7399756;19;20062;-73
2023/05/19 12:13:24;;;;;;;15.60;4.97;;;21.10;56.10;;;;;;7379105;19;20058;-73
2023/05/19 12:15:53;;;;;;;15.15;4.90;;;20.90;57.20;;;;;;7380846;19;20003;-73
2023/05/19 12:18:22;;;;;;;13.75;4.30;;;20.90;57.40;;;;;;7380375;19;20009;-71
2023/05/19 12:20:53;;;;;;;12.93;4.45;;;21.00;57.10;;;;;;7378950;19;20006;-72
2023/05/19 12:23:23;;;;;;;15.48;4.50;;;20.90;56.80;;;;;;7378040;19;20089;-72
2023/05/19 12:25:54;;;;;;;14.38;4.55;;;21.00;57.80;;;;;;7401030;19;20038;-72
2023/05/19 12:28:22;;;;;;;19.90;4.60;;;21.00;57.90;;;;;;7378513;19;20006;-73
2023/05/19 12:30:53;;;;;;;13.38;4.75;;;21.20;58.10;;;;;;7378178;19;20106;-72
2023/05/19 12:33:23;;;;;;;15.93;4.05;;;21.30;59.50;;;;;;7380974;19;20361;-73
2023/05/19 12:35:57;;;;;;;10.63;4.43;;;21.40;58.70;;;;;;7378501;19;20022;-72
2023/05/19 12:38:26;;;;;;;13.32;4.80;;;21.50;57.60;;;;;;7379159;19;20020;-73
2023/05/19 12:40:54;;;;;;;12.00;4.07;;;21.50;56.60;;;;;;7401086;19;20066;-72
2023/05/19 12:43:23;;;;;;;13.57;4.30;;;21.50;57.10;;;;;;7377659;19;20594;-72
2023/05/19 12:45:52;;;;;;;19.98;4.93;;;21.50;57.60;;;;;;7378076;19;20028;-73
2023/05/19 12:48:23;;;;;;;12.90;4.60;;;21.40;56.80;;;;;;7378063;19;20007;-72
2023/05/19 12:50:54;;;;;;;11.80;4.63;;;21.20;57.00;;;;;;7379714;19;20007;-73